sensor_id;sensor_type;location;lat;lon;timestamp;P1;P2;P0
34240;PMS7003;20503;50.200;19.508;2023-03-01T00:01:29;40;32;20
34240;PMS7003;20503;50.200;19.508;2023-03-01T00:06:37;41;28;16
34240;PMS7003;20503;50.200;19.508;2023-03-01T00:11:46;28;21;14
34240;PMS7003;20503;50.200;19.508;2023-03-01T00:16:53;33;26;13
34240;PMS7003;20503;50.200;19.508;2023-03-01T00:22:01;33;20;14
34240;PMS7003;20503;50.200;19.508;2023-03-01T00:27:09;31;20;13
34240;PMS7003;20503;50.200;19.508;2023-03-01T00:32:16;28;18;12
34240;PMS7003;20503;50.200;19.508;2023-03-01T00:37:24;26;16;11
34240;PMS7003;20503;50.200;19.508;2023-03-01T00:42:33;36;23;14
34240;PMS7003;20503;50.200;19.508;2023-03-01T00:47:41;27;22;14
34240;PMS7003;20503;50.200;19.508;2023-03-01T00:52:52;36;28;15
34240;PMS7003;20503;50.200;19.508;2023-03-01T00:57:57;37;27;15
34240;PMS7003;20503;50.200;19.508;2023-03-01T01:03:04;23;17;10
34240;PMS7003;20503;50.200;19.508;2023-03-01T01:08:12;28;22;14
34240;PMS7003;20503;50.200;19.508;2023-03-01T01:13:19;37;24;16
34240;PMS7003;20503;50.200;19.508;2023-03-01T01:18:27;33;28;16
34240;PMS7003;20503;50.200;19.508;2023-03-01T01:23:36;36;28;17
34240;PMS7003;20503;50.200;19.508;2023-03-01T01:28:43;39;29;19
34240;PMS7003;20503;50.200;19.508;2023-03-01T01:33:51;41;31;20
34240;PMS7003;20503;50.200;19.508;2023-03-01T01:38:59;39;32;20
34240;PMS7003;20503;50.200;19.508;2023-03-01T01:44:11;41;31;18
34240;PMS7003;20503;50.200;19.508;2023-03-01T01:49:20;24;17;12
34240;PMS7003;20503;50.200;19.508;2023-03-01T01:54:33;28;18;12
34240;PMS7003;20503;50.200;19.508;2023-03-01T01:59:45;26;19;12
34240;PMS7003;20503;50.200;19.508;2023-03-01T02:10:11;25;16;10
34240;PMS7003;20503;50.200;19.508;2023-03-01T02:15:13;32;22;11
34240;PMS7003;20503;50.200;19.508;2023-03-01T02:20:17;33;24;14
34240;PMS7003;20503;50.200;19.508;2023-03-01T02:30:45;45;33;19
34240;PMS7003;20503;50.200;19.508;2023-03-01T02:36:00;43;33;19
34240;PMS7003;20503;50.200;19.508;2023-03-01T02:41:08;42;29;18
34240;PMS7003;20503;50.200;19.508;2023-03-01T02:46:14;37;31;19
34240;PMS7003;20503;50.200;19.508;2023-03-01T02:56:33;32;25;14
34240;PMS7003;20503;50.200;19.508;2023-03-01T03:01:35;37;25;14
34240;PMS7003;20503;50.200;19.508;2023-03-01T03:06:40;37;26;12
34240;PMS7003;20503;50.200;19.508;2023-03-01T03:11:42;34;23;16
34240;PMS7003;20503;50.200;19.508;2023-03-01T03:16:45;26;20;13
34240;PMS7003;20503;50.200;19.508;2023-03-01T03:21:48;42;28;16
34240;PMS7003;20503;50.200;19.508;2023-03-01T03:26:50;39;26;16
34240;PMS7003;20503;50.200;19.508;2023-03-01T03:31:51;33;30;17
34240;PMS7003;20503;50.200;19.508;2023-03-01T03:36:57;39;26;16
34240;PMS7003;20503;50.200;19.508;2023-03-01T03:42:04;46;31;19
34240;PMS7003;20503;50.200;19.508;2023-03-01T03:47:13;31;26;14
34240;PMS7003;20503;50.200;19.508;2023-03-01T03:52:21;28;20;11
34240;PMS7003;20503;50.200;19.508;2023-03-01T03:57:29;29;22;13
34240;PMS7003;20503;50.200;19.508;2023-03-01T04:02:36;26;20;12
34240;PMS7003;20503;50.200;19.508;2023-03-01T04:07:45;26;18;11
34240;PMS7003;20503;50.200;19.508;2023-03-01T04:12:52;24;17;10
34240;PMS7003;20503;50.200;19.508;2023-03-01T04:17:59;24;19;12
34240;PMS7003;20503;50.200;19.508;2023-03-01T04:23:09;30;21;12
34240;PMS7003;20503;50.200;19.508;2023-03-01T04:28:25;37;26;13
34240;PMS7003;20503;50.200;19.508;2023-03-01T04:33:29;42;27;14
34240;PMS7003;20503;50.200;19.508;2023-03-01T04:38:31;32;25;13
34240;PMS7003;20503;50.200;19.508;2023-03-01T04:43:39;25;17;10
34240;PMS7003;20503;50.200;19.508;2023-03-01T04:48:48;28;22;12
34240;PMS7003;20503;50.200;19.508;2023-03-01T04:53:55;28;20;11
34240;PMS7003;20503;50.200;19.508;2023-03-01T04:59:03;21;15;10
34240;PMS7003;20503;50.200;19.508;2023-03-01T05:04:12;24;14;9
34240;PMS7003;20503;50.200;19.508;2023-03-01T05:09:20;41;26;14
34240;PMS7003;20503;50.200;19.508;2023-03-01T05:14:27;40;28;16
34240;PMS7003;20503;50.200;19.508;2023-03-01T05:19:36;39;31;15
34240;PMS7003;20503;50.200;19.508;2023-03-01T05:24:43;42;28;16
34240;PMS7003;20503;50.200;19.508;2023-03-01T05:29:51;39;30;16
34240;PMS7003;20503;50.200;19.508;2023-03-01T05:35:00;51;37;22
34240;PMS7003;20503;50.200;19.508;2023-03-01T05:40:09;55;40;22
34240;PMS7003;20503;50.200;19.508;2023-03-01T05:45:18;56;40;24
34240;PMS7003;20503;50.200;19.508;2023-03-01T05:50:25;65;44;26
34240;PMS7003;20503;50.200;19.508;2023-03-01T05:55:32;61;41;24
34240;PMS7003;20503;50.200;19.508;2023-03-01T06:00:40;51;33;22
34240;PMS7003;20503;50.200;19.508;2023-03-01T06:05:47;46;35;21
34240;PMS7003;20503;50.200;19.508;2023-03-01T06:10:56;56;39;24
34240;PMS7003;20503;50.200;19.508;2023-03-01T06:16:06;59;41;24
34240;PMS7003;20503;50.200;19.508;2023-03-01T06:21:10;55;38;24
34240;PMS7003;20503;50.200;19.508;2023-03-01T06:26:18;49;34;21
34240;PMS7003;20503;50.200;19.508;2023-03-01T06:31:27;58;39;22
34240;PMS7003;20503;50.200;19.508;2023-03-01T06:36:35;60;42;24
34240;PMS7003;20503;50.200;19.508;2023-03-01T06:41:43;61;44;27
34240;PMS7003;20503;50.200;19.508;2023-03-01T06:46:51;62;44;25
34240;PMS7003;20503;50.200;19.508;2023-03-01T06:51:59;61;42;25
34240;PMS7003;20503;50.200;19.508;2023-03-01T06:57:06;53;40;24
34240;PMS7003;20503;50.200;19.508;2023-03-01T07:02:15;56;40;23
34240;PMS7003;20503;50.200;19.508;2023-03-01T07:07:23;56;40;24
34240;PMS7003;20503;50.200;19.508;2023-03-01T07:12:31;51;37;21
34240;PMS7003;20503;50.200;19.508;2023-03-01T07:17:39;51;37;23
34240;PMS7003;20503;50.200;19.508;2023-03-01T07:22:47;47;35;22
34240;PMS7003;20503;50.200;19.508;2023-03-01T07:27:54;40;29;18
34240;PMS7003;20503;50.200;19.508;2023-03-01T07:33:02;39;29;20
34240;PMS7003;20503;50.200;19.508;2023-03-01T07:38:10;40;31;20
34240;PMS7003;20503;50.200;19.508;2023-03-01T07:43:18;40;31;19
34240;PMS7003;20503;50.200;19.508;2023-03-01T07:48:25;45;30;21
34240;PMS7003;20503;50.200;19.508;2023-03-01T07:53:33;40;30;17
34240;PMS7003;20503;50.200;19.508;2023-03-01T07:58:42;37;30;19
34240;PMS7003;20503;50.200;19.508;2023-03-01T08:03:49;35;28;16
34240;PMS7003;20503;50.200;19.508;2023-03-01T08:08:57;40;32;19
34240;PMS7003;20503;50.200;19.508;2023-03-01T08:14:06;37;28;19
34240;PMS7003;20503;50.200;19.508;2023-03-01T08:19:13;40;32;20
34240;PMS7003;20503;50.200;19.508;2023-03-01T08:24:21;24;21;12
34240;PMS7003;20503;50.200;19.508;2023-03-01T08:29:32;25;21;13
34240;PMS7003;20503;50.200;19.508;2023-03-01T08:34:36;24;24;14
34240;PMS7003;20503;50.200;19.508;2023-03-01T08:39:44;27;21;12
34240;PMS7003;20503;50.200;19.508;2023-03-01T08:44:52;22;17;13
34240;PMS7003;20503;50.200;19.508;2023-03-01T08:50:00;21;16;13
34240;PMS7003;20503;50.200;19.508;2023-03-01T08:55:08;25;23;15
34240;PMS7003;20503;50.200;19.508;2023-03-01T09:00:16;22;18;12
34240;PMS7003;20503;50.200;19.508;2023-03-01T09:05:24;23;20;12
34240;PMS7003;20503;50.200;19.508;2023-03-01T09:10:32;31;23;12
34240;PMS7003;20503;50.200;19.508;2023-03-01T09:15:41;18;17;12
34240;PMS7003;20503;50.200;19.508;2023-03-01T09:20:48;24;21;14
34240;PMS7003;20503;50.200;19.508;2023-03-01T09:25:56;24;20;12
34240;PMS7003;20503;50.200;19.508;2023-03-01T09:31:03;19;19;12
34240;PMS7003;20503;50.200;19.508;2023-03-01T09:36:12;21;19;11
34240;PMS7003;20503;50.200;19.508;2023-03-01T09:46:33;24;19;12
34240;PMS7003;20503;50.200;19.508;2023-03-01T09:51:42;19;15;11
34240;PMS7003;20503;50.200;19.508;2023-03-01T10:12:40;21;19;12
34240;PMS7003;20503;50.200;19.508;2023-03-01T10:17:50;28;24;13
34240;PMS7003;20503;50.200;19.508;2023-03-01T10:22:59;32;23;14
34240;PMS7003;20503;50.200;19.508;2023-03-01T10:28:05;24;17;12
34240;PMS7003;20503;50.200;19.508;2023-03-01T10:33:22;25;20;14
34240;PMS7003;20503;50.200;19.508;2023-03-01T10:38:33;25;19;13
34240;PMS7003;20503;50.200;19.508;2023-03-01T10:43:47;25;20;13
34240;PMS7003;20503;50.200;19.508;2023-03-01T10:54:14;33;22;16
34240;PMS7003;20503;50.200;19.508;2023-03-01T10:59:31;26;21;12
34240;PMS7003;20503;50.200;19.508;2023-03-01T11:04:29;29;22;13
34240;PMS7003;20503;50.200;19.508;2023-03-01T11:09:32;55;37;23
34240;PMS7003;20503;50.200;19.508;2023-03-01T11:14:50;32;22;15
34240;PMS7003;20503;50.200;19.508;2023-03-01T11:25:07;27;19;11
34240;PMS7003;20503;50.200;19.508;2023-03-01T11:30:20;44;33;21
34240;PMS7003;20503;50.200;19.508;2023-03-01T11:35:28;35;25;14
34240;PMS7003;20503;50.200;19.508;2023-03-01T11:40:40;26;21;13
34240;PMS7003;20503;50.200;19.508;2023-03-01T11:51:03;24;21;12
34240;PMS7003;20503;50.200;19.508;2023-03-01T11:57:00;29;20;12
34240;PMS7003;20503;50.200;19.508;2023-03-01T12:06:48;32;26;15
34240;PMS7003;20503;50.200;19.508;2023-03-01T12:38:02;42;35;20
34240;PMS7003;20503;50.200;19.508;2023-03-01T12:53:45;21;19;12
34240;PMS7003;20503;50.200;19.508;2023-03-01T13:14:35;30;20;13
34240;PMS7003;20503;50.200;19.508;2023-03-01T13:19:37;26;17;12
34240;PMS7003;20503;50.200;19.508;2023-03-01T13:24:42;13;11;7
34240;PMS7003;20503;50.200;19.508;2023-03-01T13:29:45;19;15;11
34240;PMS7003;20503;50.200;19.508;2023-03-01T13:34:55;17;12;7
34240;PMS7003;20503;50.200;19.508;2023-03-01T13:40:01;18;15;11
34240;PMS7003;20503;50.200;19.508;2023-03-01T13:45:55;18;14;8
34240;PMS7003;20503;50.200;19.508;2023-03-01T13:50:23;13;11;8
34240;PMS7003;20503;50.200;19.508;2023-03-01T13:55:32;19;13;9
34240;PMS7003;20503;50.200;19.508;2023-03-01T14:00:42;29;19;12
34240;PMS7003;20503;50.200;19.508;2023-03-01T14:05:57;21;16;10
34240;PMS7003;20503;50.200;19.508;2023-03-01T14:11:03;16;13;9
34240;PMS7003;20503;50.200;19.508;2023-03-01T14:16:12;22;18;11
34240;PMS7003;20503;50.200;19.508;2023-03-01T14:21:22;20;13;10
34240;PMS7003;20503;50.200;19.508;2023-03-01T14:26:26;19;15;10
34240;PMS7003;20503;50.200;19.508;2023-03-01T14:36:41;14;12;9
34240;PMS7003;20503;50.200;19.508;2023-03-01T14:41:44;17;13;7
34240;PMS7003;20503;50.200;19.508;2023-03-01T14:46:51;22;16;9
34240;PMS7003;20503;50.200;19.508;2023-03-01T14:52:04;22;16;10
34240;PMS7003;20503;50.200;19.508;2023-03-01T14:57:12;20;14;10
34240;PMS7003;20503;50.200;19.508;2023-03-01T15:02:20;12;7;5
34240;PMS7003;20503;50.200;19.508;2023-03-01T15:07:28;13;9;6
34240;PMS7003;20503;50.200;19.508;2023-03-01T15:12:37;13;11;9
34240;PMS7003;20503;50.200;19.508;2023-03-01T15:17:40;12;11;7
34240;PMS7003;20503;50.200;19.508;2023-03-01T15:22:45;14;9;6
34240;PMS7003;20503;50.200;19.508;2023-03-01T15:27:49;11;9;7
34240;PMS7003;20503;50.200;19.508;2023-03-01T15:48:34;37;26;13
34240;PMS7003;20503;50.200;19.508;2023-03-01T15:53:36;27;14;10
34240;PMS7003;20503;50.200;19.508;2023-03-01T15:58:38;47;38;21
34240;PMS7003;20503;50.200;19.508;2023-03-01T16:03:44;40;30;19
34240;PMS7003;20503;50.200;19.508;2023-03-01T16:08:46;46;33;19
34240;PMS7003;20503;50.200;19.508;2023-03-01T16:13:49;30;23;15
34240;PMS7003;20503;50.200;19.508;2023-03-01T16:18:51;49;35;19
34240;PMS7003;20503;50.200;19.508;2023-03-01T16:23:52;46;34;16
34240;PMS7003;20503;50.200;19.508;2023-03-01T16:28:55;63;48;29
34240;PMS7003;20503;50.200;19.508;2023-03-01T16:33:59;53;37;23
34240;PMS7003;20503;50.200;19.508;2023-03-01T16:39:01;52;40;24
34240;PMS7003;20503;50.200;19.508;2023-03-01T16:44:04;63;48;29
34240;PMS7003;20503;50.200;19.508;2023-03-01T16:49:06;51;35;21
34240;PMS7003;20503;50.200;19.508;2023-03-01T16:54:08;42;33;20
34240;PMS7003;20503;50.200;19.508;2023-03-01T16:59:11;69;52;30
34240;PMS7003;20503;50.200;19.508;2023-03-01T17:04:13;93;61;33
34240;PMS7003;20503;50.200;19.508;2023-03-01T17:09:15;87;57;31
34240;PMS7003;20503;50.200;19.508;2023-03-01T17:14:17;86;59;35
34240;PMS7003;20503;50.200;19.508;2023-03-01T17:19:19;78;53;28
34240;PMS7003;20503;50.200;19.508;2023-03-01T17:24:20;84;61;35
34240;PMS7003;20503;50.200;19.508;2023-03-01T17:29:22;74;51;30
34240;PMS7003;20503;50.200;19.508;2023-03-01T17:34:24;71;52;28
34240;PMS7003;20503;50.200;19.508;2023-03-01T17:39:26;71;49;28
34240;PMS7003;20503;50.200;19.508;2023-03-01T17:44:35;66;49;26
34240;PMS7003;20503;50.200;19.508;2023-03-01T17:49:37;70;51;28
34240;PMS7003;20503;50.200;19.508;2023-03-01T17:54:39;89;62;35
34240;PMS7003;20503;50.200;19.508;2023-03-01T17:59:41;88;62;33
34240;PMS7003;20503;50.200;19.508;2023-03-01T18:04:46;73;51;31
34240;PMS7003;20503;50.200;19.508;2023-03-01T18:09:48;93;63;33
34240;PMS7003;20503;50.200;19.508;2023-03-01T18:14:50;112;78;38
34240;PMS7003;20503;50.200;19.508;2023-03-01T18:22:42;55;40;23
34240;PMS7003;20503;50.200;19.508;2023-03-01T18:27:53;54;38;23
34240;PMS7003;20503;50.200;19.508;2023-03-01T18:32:59;74;50;27
34240;PMS7003;20503;50.200;19.508;2023-03-01T18:38:06;78;48;27
34240;PMS7003;20503;50.200;19.508;2023-03-01T18:43:14;56;36;21
34240;PMS7003;20503;50.200;19.508;2023-03-01T18:48:22;53;36;19
34240;PMS7003;20503;50.200;19.508;2023-03-01T18:53:30;59;38;21
34240;PMS7003;20503;50.200;19.508;2023-03-01T18:58:42;62;41;23
34240;PMS7003;20503;50.200;19.508;2023-03-01T19:03:53;70;46;26
34240;PMS7003;20503;50.200;19.508;2023-03-01T19:08:56;43;33;20
34240;PMS7003;20503;50.200;19.508;2023-03-01T19:14:03;50;37;22
34240;PMS7003;20503;50.200;19.508;2023-03-01T19:19:16;55;41;24
34240;PMS7003;20503;50.200;19.508;2023-03-01T19:24:19;62;44;26
34240;PMS7003;20503;50.200;19.508;2023-03-01T19:29:27;27;21;13
34240;PMS7003;20503;50.200;19.508;2023-03-01T19:34:35;53;36;20
34240;PMS7003;20503;50.200;19.508;2023-03-01T19:39:46;51;36;20
34240;PMS7003;20503;50.200;19.508;2023-03-01T19:44:53;54;40;23
34240;PMS7003;20503;50.200;19.508;2023-03-01T19:50:00;54;38;22
34240;PMS7003;20503;50.200;19.508;2023-03-01T19:55:07;56;41;23
34240;PMS7003;20503;50.200;19.508;2023-03-01T20:00:15;63;42;25
34240;PMS7003;20503;50.200;19.508;2023-03-01T20:05:23;65;47;28
34240;PMS7003;20503;50.200;19.508;2023-03-01T20:10:32;49;34;20
34240;PMS7003;20503;50.200;19.508;2023-03-01T20:15:43;43;30;18
34240;PMS7003;20503;50.200;19.508;2023-03-01T20:20:47;30;27;16
34240;PMS7003;20503;50.200;19.508;2023-03-01T20:31:17;36;26;16
34240;PMS7003;20503;50.200;19.508;2023-03-01T20:36:25;34;22;15
34240;PMS7003;20503;50.200;19.508;2023-03-01T20:41:28;46;32;19
34240;PMS7003;20503;50.200;19.508;2023-03-01T20:46:30;36;30;17
34240;PMS7003;20503;50.200;19.508;2023-03-01T20:51:35;45;34;22
34240;PMS7003;20503;50.200;19.508;2023-03-01T20:56:46;55;38;22
34240;PMS7003;20503;50.200;19.508;2023-03-01T21:01:52;52;36;21
34240;PMS7003;20503;50.200;19.508;2023-03-01T21:07:04;50;34;20
34240;PMS7003;20503;50.200;19.508;2023-03-01T21:12:08;58;41;24
34240;PMS7003;20503;50.200;19.508;2023-03-01T21:17:17;56;41;25
34240;PMS7003;20503;50.200;19.508;2023-03-01T21:22:26;51;36;22
34240;PMS7003;20503;50.200;19.508;2023-03-01T21:27:34;52;36;22
34240;PMS7003;20503;50.200;19.508;2023-03-01T21:32:41;50;39;22
34240;PMS7003;20503;50.200;19.508;2023-03-01T21:37:50;55;42;25
34240;PMS7003;20503;50.200;19.508;2023-03-01T21:42:57;56;39;23
34240;PMS7003;20503;50.200;19.508;2023-03-01T21:48:04;34;24;13
34240;PMS7003;20503;50.200;19.508;2023-03-01T21:53:15;37;28;16
34240;PMS7003;20503;50.200;19.508;2023-03-01T21:58:20;36;26;14
34240;PMS7003;20503;50.200;19.508;2023-03-01T22:03:27;33;31;17
34240;PMS7003;20503;50.200;19.508;2023-03-01T22:08:35;44;32;20
34240;PMS7003;20503;50.200;19.508;2023-03-01T22:13:44;46;32;20
34240;PMS7003;20503;50.200;19.508;2023-03-01T22:18:51;48;30;18
34240;PMS7003;20503;50.200;19.508;2023-03-01T22:23:59;52;35;22
34240;PMS7003;20503;50.200;19.508;2023-03-01T22:29:09;50;38;22
34240;PMS7003;20503;50.200;19.508;2023-03-01T22:34:16;58;41;25
34240;PMS7003;20503;50.200;19.508;2023-03-01T22:39:22;47;34;22
34240;PMS7003;20503;50.200;19.508;2023-03-01T22:44:31;36;26;16
34240;PMS7003;20503;50.200;19.508;2023-03-01T22:49:38;25;19;12
34240;PMS7003;20503;50.200;19.508;2023-03-01T22:54:47;30;21;11
34240;PMS7003;20503;50.200;19.508;2023-03-01T22:59:55;24;21;14
34240;PMS7003;20503;50.200;19.508;2023-03-01T23:05:03;37;26;17
34240;PMS7003;20503;50.200;19.508;2023-03-01T23:10:10;73;49;27
34240;PMS7003;20503;50.200;19.508;2023-03-01T23:15:18;62;44;26
34240;PMS7003;20503;50.200;19.508;2023-03-01T23:20:26;43;30;18
34240;PMS7003;20503;50.200;19.508;2023-03-01T23:25:34;36;24;16
34240;PMS7003;20503;50.200;19.508;2023-03-01T23:30:42;33;22;14
34240;PMS7003;20503;50.200;19.508;2023-03-01T23:35:55;29;22;12
34240;PMS7003;20503;50.200;19.508;2023-03-01T23:40:58;31;24;15
34240;PMS7003;20503;50.200;19.508;2023-03-01T23:46:05;48;35;20
34240;PMS7003;20503;50.200;19.508;2023-03-01T23:51:14;47;34;19
